sensor_id;sensor_type;location;lat;lon;timestamp;temperature;humidity
13808;DHT22;40769;51.512;5.494;2023-08-31T00:00:09;14.40;99.90
13808;DHT22;40769;51.512;5.494;2023-08-31T00:02:36;14.60;99.90
13808;DHT22;40769;51.512;5.494;2023-08-31T00:05:02;14.60;99.90
13808;DHT22;40769;51.512;5.494;2023-08-31T00:07:29;14.50;99.90
13808;DHT22;40769;51.512;5.494;2023-08-31T00:09:55;14.50;99.90
13808;DHT22;40769;51.512;5.494;2023-08-31T00:12:20;14.50;99.90
13808;DHT22;40769;51.512;5.494;2023-08-31T00:14:49;14.40;99.90
13808;DHT22;40769;51.512;5.494;2023-08-31T00:17:15;14.40;99.90
13808;DHT22;40769;51.512;5.494;2023-08-31T00:19:40;14.40;99.90
13808;DHT22;40769;51.512;5.494;2023-08-31T00:22:06;14.40;99.90
13808;DHT22;40769;51.512;5.494;2023-08-31T00:24:32;14.30;99.90
13808;DHT22;40769;51.512;5.494;2023-08-31T00:27:03;14.30;99.90
13808;DHT22;40769;51.512;5.494;2023-08-31T00:29:29;14.30;99.90
13808;DHT22;40769;51.512;5.494;2023-08-31T00:31:58;14.20;99.90
13808;DHT22;40769;51.512;5.494;2023-08-31T00:34:24;14.20;99.90
13808;DHT22;40769;51.512;5.494;2023-08-31T00:36:49;14.20;99.90
13808;DHT22;40769;51.512;5.494;2023-08-31T00:39:15;14.20;99.90
13808;DHT22;40769;51.512;5.494;2023-08-31T00:41:43;14.10;99.90
13808;DHT22;40769;51.512;5.494;2023-08-31T00:44:11;14.10;99.90
13808;DHT22;40769;51.512;5.494;2023-08-31T00:46:37;14.10;99.90
13808;DHT22;40769;51.512;5.494;2023-08-31T00:49:03;14.10;99.90
13808;DHT22;40769;51.512;5.494;2023-08-31T00:51:29;14.10;99.90
13808;DHT22;40769;51.512;5.494;2023-08-31T00:53:55;14.10;99.90
13808;DHT22;40769;51.512;5.494;2023-08-31T00:56:21;14.00;99.90
13808;DHT22;40769;51.512;5.494;2023-08-31T00:58:47;14.00;99.90
13808;DHT22;40769;51.512;5.494;2023-08-31T01:09:28;13.90;99.90
13808;DHT22;40769;51.512;5.494;2023-08-31T01:14:56;13.90;99.90
13808;DHT22;40769;51.512;5.494;2023-08-31T01:17:28;13.90;99.90
13808;DHT22;40769;51.512;5.494;2023-08-31T01:19:57;13.80;99.90
13808;DHT22;40769;51.512;5.494;2023-08-31T01:22:38;13.80;99.90
13808;DHT22;40769;51.512;5.494;2023-08-31T01:25:07;13.80;99.90
13808;DHT22;40769;51.512;5.494;2023-08-31T01:27:35;13.80;99.90
13808;DHT22;40769;51.512;5.494;2023-08-31T01:30:01;13.80;99.90
13808;DHT22;40769;51.512;5.494;2023-08-31T01:32:29;13.80;99.90
13808;DHT22;40769;51.512;5.494;2023-08-31T01:34:55;13.80;99.90
13808;DHT22;40769;51.512;5.494;2023-08-31T01:37:37;13.70;99.90
13808;DHT22;40769;51.512;5.494;2023-08-31T01:40:14;13.70;99.90
13808;DHT22;40769;51.512;5.494;2023-08-31T01:42:42;13.70;99.90
13808;DHT22;40769;51.512;5.494;2023-08-31T01:45:10;13.70;99.90
13808;DHT22;40769;51.512;5.494;2023-08-31T01:47:39;13.70;99.90
13808;DHT22;40769;51.512;5.494;2023-08-31T01:50:05;13.70;99.90
13808;DHT22;40769;51.512;5.494;2023-08-31T01:52:31;13.70;99.90
13808;DHT22;40769;51.512;5.494;2023-08-31T01:54:57;13.70;99.90
13808;DHT22;40769;51.512;5.494;2023-08-31T01:57:23;13.70;99.90
13808;DHT22;40769;51.512;5.494;2023-08-31T01:59:48;13.70;99.90
13808;DHT22;40769;51.512;5.494;2023-08-31T02:02:14;13.90;99.90
13808;DHT22;40769;51.512;5.494;2023-08-31T02:04:40;13.70;99.90
13808;DHT22;40769;51.512;5.494;2023-08-31T02:07:05;13.80;99.90
13808;DHT22;40769;51.512;5.494;2023-08-31T02:09:31;13.80;99.90
13808;DHT22;40769;51.512;5.494;2023-08-31T02:11:56;13.70;99.90
13808;DHT22;40769;51.512;5.494;2023-08-31T02:14:22;13.80;99.90
13808;DHT22;40769;51.512;5.494;2023-08-31T02:16:48;13.80;99.90
13808;DHT22;40769;51.512;5.494;2023-08-31T02:19:14;13.80;99.90
13808;DHT22;40769;51.512;5.494;2023-08-31T02:21:40;13.90;99.90
13808;DHT22;40769;51.512;5.494;2023-08-31T02:24:06;14.00;99.90
13808;DHT22;40769;51.512;5.494;2023-08-31T02:26:33;14.00;99.90
13808;DHT22;40769;51.512;5.494;2023-08-31T02:28:58;14.00;99.90
13808;DHT22;40769;51.512;5.494;2023-08-31T02:31:24;14.10;99.90
13808;DHT22;40769;51.512;5.494;2023-08-31T02:33:50;14.10;99.90
13808;DHT22;40769;51.512;5.494;2023-08-31T02:36:15;14.10;99.90
13808;DHT22;40769;51.512;5.494;2023-08-31T02:38:41;14.20;99.90
13808;DHT22;40769;51.512;5.494;2023-08-31T02:41:07;14.20;99.90
13808;DHT22;40769;51.512;5.494;2023-08-31T02:43:32;14.20;99.90
13808;DHT22;40769;51.512;5.494;2023-08-31T02:46:02;14.20;99.90
13808;DHT22;40769;51.512;5.494;2023-08-31T02:48:28;14.20;99.90
13808;DHT22;40769;51.512;5.494;2023-08-31T02:50:58;14.20;99.90
13808;DHT22;40769;51.512;5.494;2023-08-31T02:53:30;14.20;99.90
13808;DHT22;40769;51.512;5.494;2023-08-31T02:55:56;14.20;99.90
13808;DHT22;40769;51.512;5.494;2023-08-31T02:58:22;14.10;99.90
13808;DHT22;40769;51.512;5.494;2023-08-31T03:00:48;14.10;99.90
13808;DHT22;40769;51.512;5.494;2023-08-31T03:03:17;14.10;99.90
13808;DHT22;40769;51.512;5.494;2023-08-31T03:05:43;14.10;99.90
13808;DHT22;40769;51.512;5.494;2023-08-31T03:08:09;14.10;99.90
13808;DHT22;40769;51.512;5.494;2023-08-31T03:10:36;14.00;99.90
13808;DHT22;40769;51.512;5.494;2023-08-31T03:13:02;14.00;99.90
13808;DHT22;40769;51.512;5.494;2023-08-31T03:15:29;14.00;99.90
13808;DHT22;40769;51.512;5.494;2023-08-31T03:17:54;13.90;99.90
13808;DHT22;40769;51.512;5.494;2023-08-31T03:20:20;13.90;99.90
13808;DHT22;40769;51.512;5.494;2023-08-31T03:22:46;13.80;99.90
13808;DHT22;40769;51.512;5.494;2023-08-31T03:25:11;13.90;99.90
13808;DHT22;40769;51.512;5.494;2023-08-31T03:27:37;14.00;99.90
13808;DHT22;40769;51.512;5.494;2023-08-31T03:30:03;14.70;99.90
13808;DHT22;40769;51.512;5.494;2023-08-31T03:32:30;14.30;99.90
13808;DHT22;40769;51.512;5.494;2023-08-31T03:34:56;13.70;99.90
13808;DHT22;40769;51.512;5.494;2023-08-31T03:37:25;13.70;99.90
13808;DHT22;40769;51.512;5.494;2023-08-31T03:39:50;13.70;99.90
13808;DHT22;40769;51.512;5.494;2023-08-31T03:42:16;13.60;99.90
13808;DHT22;40769;51.512;5.494;2023-08-31T03:44:42;13.60;99.90
13808;DHT22;40769;51.512;5.494;2023-08-31T03:47:07;13.60;99.90
13808;DHT22;40769;51.512;5.494;2023-08-31T03:49:33;13.60;99.90
13808;DHT22;40769;51.512;5.494;2023-08-31T03:52:00;13.50;99.90
13808;DHT22;40769;51.512;5.494;2023-08-31T03:54:26;13.50;99.90
13808;DHT22;40769;51.512;5.494;2023-08-31T03:56:52;13.50;99.90
13808;DHT22;40769;51.512;5.494;2023-08-31T03:59:18;13.50;99.90
13808;DHT22;40769;51.512;5.494;2023-08-31T04:01:44;13.50;99.90
13808;DHT22;40769;51.512;5.494;2023-08-31T04:04:09;13.40;99.90
13808;DHT22;40769;51.512;5.494;2023-08-31T04:06:35;13.40;99.90
13808;DHT22;40769;51.512;5.494;2023-08-31T04:09:01;13.40;99.90
13808;DHT22;40769;51.512;5.494;2023-08-31T04:11:26;13.40;99.90
13808;DHT22;40769;51.512;5.494;2023-08-31T04:13:52;13.40;99.90
13808;DHT22;40769;51.512;5.494;2023-08-31T04:16:18;13.40;99.90
13808;DHT22;40769;51.512;5.494;2023-08-31T04:18:44;13.40;99.90
13808;DHT22;40769;51.512;5.494;2023-08-31T04:21:17;13.40;99.90
13808;DHT22;40769;51.512;5.494;2023-08-31T04:23:42;13.40;99.90
13808;DHT22;40769;51.512;5.494;2023-08-31T04:26:14;13.40;99.90
13808;DHT22;40769;51.512;5.494;2023-08-31T04:28:40;13.40;99.90
13808;DHT22;40769;51.512;5.494;2023-08-31T04:31:08;13.40;99.90
13808;DHT22;40769;51.512;5.494;2023-08-31T04:33:34;13.40;99.90
13808;DHT22;40769;51.512;5.494;2023-08-31T04:36:00;13.40;99.90
13808;DHT22;40769;51.512;5.494;2023-08-31T04:38:26;13.40;99.90
13808;DHT22;40769;51.512;5.494;2023-08-31T04:40:52;14.80;99.90
13808;DHT22;40769;51.512;5.494;2023-08-31T04:43:18;13.40;99.90
13808;DHT22;40769;51.512;5.494;2023-08-31T04:45:43;13.30;99.90
13808;DHT22;40769;51.512;5.494;2023-08-31T04:48:09;13.30;99.90
13808;DHT22;40769;51.512;5.494;2023-08-31T04:50:35;13.30;99.90
13808;DHT22;40769;51.512;5.494;2023-08-31T04:53:01;13.40;99.90
13808;DHT22;40769;51.512;5.494;2023-08-31T04:55:26;13.30;99.90
13808;DHT22;40769;51.512;5.494;2023-08-31T04:57:52;13.40;99.90
13808;DHT22;40769;51.512;5.494;2023-08-31T05:00:19;13.30;99.90
13808;DHT22;40769;51.512;5.494;2023-08-31T05:02:44;13.40;99.90
13808;DHT22;40769;51.512;5.494;2023-08-31T05:05:10;13.40;99.90
13808;DHT22;40769;51.512;5.494;2023-08-31T05:07:36;13.50;99.90
13808;DHT22;40769;51.512;5.494;2023-08-31T05:10:01;13.30;99.90
13808;DHT22;40769;51.512;5.494;2023-08-31T05:12:27;13.40;99.90
13808;DHT22;40769;51.512;5.494;2023-08-31T05:14:53;13.40;99.90
13808;DHT22;40769;51.512;5.494;2023-08-31T05:17:18;13.40;99.90
13808;DHT22;40769;51.512;5.494;2023-08-31T05:19:44;13.40;99.90
13808;DHT22;40769;51.512;5.494;2023-08-31T05:22:10;13.40;99.90
13808;DHT22;40769;51.512;5.494;2023-08-31T05:24:36;13.40;99.90
13808;DHT22;40769;51.512;5.494;2023-08-31T05:27:01;13.50;99.90
13808;DHT22;40769;51.512;5.494;2023-08-31T05:29:29;13.50;99.90
13808;DHT22;40769;51.512;5.494;2023-08-31T05:31:55;13.60;99.90
13808;DHT22;40769;51.512;5.494;2023-08-31T05:34:21;13.70;99.90
13808;DHT22;40769;51.512;5.494;2023-08-31T05:36:48;13.80;99.90
13808;DHT22;40769;51.512;5.494;2023-08-31T05:39:14;13.80;99.90
13808;DHT22;40769;51.512;5.494;2023-08-31T05:41:42;13.80;99.90
13808;DHT22;40769;51.512;5.494;2023-08-31T05:44:09;13.80;99.90
13808;DHT22;40769;51.512;5.494;2023-08-31T05:46:34;13.80;99.90
13808;DHT22;40769;51.512;5.494;2023-08-31T05:49:00;13.90;99.90
13808;DHT22;40769;51.512;5.494;2023-08-31T05:51:26;13.90;99.90
13808;DHT22;40769;51.512;5.494;2023-08-31T05:53:52;13.90;99.90
13808;DHT22;40769;51.512;5.494;2023-08-31T05:56:19;14.00;99.90
13808;DHT22;40769;51.512;5.494;2023-08-31T05:58:45;14.00;99.90
13808;DHT22;40769;51.512;5.494;2023-08-31T06:01:11;14.00;99.90
13808;DHT22;40769;51.512;5.494;2023-08-31T06:03:36;13.30;99.90
13808;DHT22;40769;51.512;5.494;2023-08-31T06:06:02;14.30;99.90
13808;DHT22;40769;51.512;5.494;2023-08-31T06:08:29;14.10;99.90
13808;DHT22;40769;51.512;5.494;2023-08-31T06:10:55;14.20;99.90
13808;DHT22;40769;51.512;5.494;2023-08-31T06:13:21;14.30;99.90
13808;DHT22;40769;51.512;5.494;2023-08-31T06:15:47;14.30;99.90
13808;DHT22;40769;51.512;5.494;2023-08-31T06:18:13;14.40;99.90
13808;DHT22;40769;51.512;5.494;2023-08-31T06:20:39;13.60;99.90
13808;DHT22;40769;51.512;5.494;2023-08-31T06:23:05;14.60;99.90
13808;DHT22;40769;51.512;5.494;2023-08-31T06:25:30;14.70;99.90
13808;DHT22;40769;51.512;5.494;2023-08-31T06:27:57;14.90;99.90
13808;DHT22;40769;51.512;5.494;2023-08-31T06:30:23;15.20;99.90
13808;DHT22;40769;51.512;5.494;2023-08-31T06:32:48;15.40;99.90
13808;DHT22;40769;51.512;5.494;2023-08-31T06:35:15;15.60;99.90
13808;DHT22;40769;51.512;5.494;2023-08-31T06:37:41;15.90;99.90
13808;DHT22;40769;51.512;5.494;2023-08-31T06:40:09;16.10;99.90
13808;DHT22;40769;51.512;5.494;2023-08-31T06:42:38;16.40;99.90
13808;DHT22;40769;51.512;5.494;2023-08-31T06:45:06;16.60;99.90
13808;DHT22;40769;51.512;5.494;2023-08-31T06:47:32;16.90;99.90
13808;DHT22;40769;51.512;5.494;2023-08-31T06:49:58;17.10;99.90
13808;DHT22;40769;51.512;5.494;2023-08-31T06:52:27;17.30;99.90
13808;DHT22;40769;51.512;5.494;2023-08-31T06:54:53;17.50;99.90
13808;DHT22;40769;51.512;5.494;2023-08-31T06:57:24;17.70;99.90
13808;DHT22;40769;51.512;5.494;2023-08-31T06:59:50;17.90;99.90
13808;DHT22;40769;51.512;5.494;2023-08-31T07:02:15;18.10;99.90
13808;DHT22;40769;51.512;5.494;2023-08-31T07:04:41;18.20;99.90
13808;DHT22;40769;51.512;5.494;2023-08-31T07:07:08;19.20;99.90
13808;DHT22;40769;51.512;5.494;2023-08-31T07:09:34;18.60;99.90
13808;DHT22;40769;51.512;5.494;2023-08-31T07:12:00;18.80;99.90
13808;DHT22;40769;51.512;5.494;2023-08-31T07:14:29;19.00;99.90
13808;DHT22;40769;51.512;5.494;2023-08-31T07:16:55;19.10;99.90
13808;DHT22;40769;51.512;5.494;2023-08-31T07:19:20;19.30;99.90
13808;DHT22;40769;51.512;5.494;2023-08-31T07:21:46;19.40;99.90
13808;DHT22;40769;51.512;5.494;2023-08-31T07:24:13;19.50;99.90
13808;DHT22;40769;51.512;5.494;2023-08-31T07:26:39;19.60;99.90
13808;DHT22;40769;51.512;5.494;2023-08-31T07:29:04;19.70;99.90
13808;DHT22;40769;51.512;5.494;2023-08-31T07:31:31;19.80;99.90
13808;DHT22;40769;51.512;5.494;2023-08-31T07:33:57;20.00;99.90
13808;DHT22;40769;51.512;5.494;2023-08-31T07:36:24;20.10;99.90
13808;DHT22;40769;51.512;5.494;2023-08-31T07:38:49;20.20;99.90
13808;DHT22;40769;51.512;5.494;2023-08-31T07:41:15;20.30;99.90
13808;DHT22;40769;51.512;5.494;2023-08-31T07:43:41;20.50;99.90
13808;DHT22;40769;51.512;5.494;2023-08-31T07:46:06;20.60;99.90
13808;DHT22;40769;51.512;5.494;2023-08-31T07:48:32;20.80;99.90
13808;DHT22;40769;51.512;5.494;2023-08-31T07:50:58;20.90;99.90
13808;DHT22;40769;51.512;5.494;2023-08-31T07:53:23;21.00;99.90
13808;DHT22;40769;51.512;5.494;2023-08-31T07:55:55;21.20;99.90
13808;DHT22;40769;51.512;5.494;2023-08-31T07:58:24;21.30;99.90
13808;DHT22;40769;51.512;5.494;2023-08-31T08:00:55;21.50;99.90
13808;DHT22;40769;51.512;5.494;2023-08-31T08:03:22;21.60;99.90
13808;DHT22;40769;51.512;5.494;2023-08-31T08:05:48;21.80;99.90
13808;DHT22;40769;51.512;5.494;2023-08-31T08:08:14;21.90;99.90
13808;DHT22;40769;51.512;5.494;2023-08-31T08:10:39;22.00;99.90
13808;DHT22;40769;51.512;5.494;2023-08-31T08:13:05;22.10;99.90
13808;DHT22;40769;51.512;5.494;2023-08-31T08:15:31;22.20;99.90
13808;DHT22;40769;51.512;5.494;2023-08-31T08:17:57;22.30;99.90
13808;DHT22;40769;51.512;5.494;2023-08-31T08:20:23;22.40;99.90
13808;DHT22;40769;51.512;5.494;2023-08-31T08:22:49;22.50;99.90
13808;DHT22;40769;51.512;5.494;2023-08-31T08:25:18;22.70;99.90
13808;DHT22;40769;51.512;5.494;2023-08-31T08:27:44;22.80;99.90
13808;DHT22;40769;51.512;5.494;2023-08-31T08:30:10;22.90;99.90
13808;DHT22;40769;51.512;5.494;2023-08-31T08:32:36;23.10;99.90
13808;DHT22;40769;51.512;5.494;2023-08-31T08:35:02;23.20;99.90
13808;DHT22;40769;51.512;5.494;2023-08-31T08:37:28;23.40;99.90
13808;DHT22;40769;51.512;5.494;2023-08-31T08:39:55;23.50;99.90
13808;DHT22;40769;51.512;5.494;2023-08-31T08:42:23;23.70;99.90
13808;DHT22;40769;51.512;5.494;2023-08-31T08:44:50;23.80;99.90
13808;DHT22;40769;51.512;5.494;2023-08-31T08:47:16;23.90;99.90
13808;DHT22;40769;51.512;5.494;2023-08-31T08:49:43;24.00;99.90
13808;DHT22;40769;51.512;5.494;2023-08-31T08:52:09;24.10;99.90
13808;DHT22;40769;51.512;5.494;2023-08-31T08:54:35;24.10;99.90
13808;DHT22;40769;51.512;5.494;2023-08-31T08:57:01;24.20;99.90
13808;DHT22;40769;51.512;5.494;2023-08-31T08:59:29;24.30;99.90
13808;DHT22;40769;51.512;5.494;2023-08-31T09:01:55;24.40;99.90
13808;DHT22;40769;51.512;5.494;2023-08-31T09:04:21;24.40;99.90
13808;DHT22;40769;51.512;5.494;2023-08-31T09:06:47;24.50;99.90
13808;DHT22;40769;51.512;5.494;2023-08-31T09:09:13;24.60;99.90
13808;DHT22;40769;51.512;5.494;2023-08-31T09:11:39;24.70;99.90
13808;DHT22;40769;51.512;5.494;2023-08-31T09:14:18;24.80;99.90
13808;DHT22;40769;51.512;5.494;2023-08-31T09:16:49;24.90;99.90
13808;DHT22;40769;51.512;5.494;2023-08-31T09:19:23;24.90;99.90
13808;DHT22;40769;51.512;5.494;2023-08-31T09:21:49;25.00;99.90
13808;DHT22;40769;51.512;5.494;2023-08-31T09:24:15;25.10;99.90
13808;DHT22;40769;51.512;5.494;2023-08-31T09:26:44;25.10;99.90
13808;DHT22;40769;51.512;5.494;2023-08-31T09:29:11;25.20;99.90
13808;DHT22;40769;51.512;5.494;2023-08-31T09:31:37;25.30;99.90
13808;DHT22;40769;51.512;5.494;2023-08-31T09:34:03;25.30;99.90
13808;DHT22;40769;51.512;5.494;2023-08-31T09:36:29;25.40;99.90
13808;DHT22;40769;51.512;5.494;2023-08-31T09:38:58;25.50;99.90
13808;DHT22;40769;51.512;5.494;2023-08-31T09:41:24;25.60;99.90
13808;DHT22;40769;51.512;5.494;2023-08-31T09:43:50;25.80;99.90
13808;DHT22;40769;51.512;5.494;2023-08-31T09:46:16;26.00;99.90
13808;DHT22;40769;51.512;5.494;2023-08-31T09:48:42;26.10;99.90
13808;DHT22;40769;51.512;5.494;2023-08-31T09:51:10;26.10;99.90
13808;DHT22;40769;51.512;5.494;2023-08-31T09:53:37;26.00;99.90
13808;DHT22;40769;51.512;5.494;2023-08-31T09:56:05;25.90;99.90
13808;DHT22;40769;51.512;5.494;2023-08-31T09:58:31;25.80;99.90
13808;DHT22;40769;51.512;5.494;2023-08-31T10:00:58;25.80;99.90
13808;DHT22;40769;51.512;5.494;2023-08-31T10:03:26;25.80;99.90
13808;DHT22;40769;51.512;5.494;2023-08-31T10:05:54;25.90;99.90
13808;DHT22;40769;51.512;5.494;2023-08-31T10:08:20;26.00;99.90
13808;DHT22;40769;51.512;5.494;2023-08-31T10:10:46;26.00;99.90
13808;DHT22;40769;51.512;5.494;2023-08-31T10:13:12;26.00;99.90
13808;DHT22;40769;51.512;5.494;2023-08-31T10:15:39;26.00;99.90
13808;DHT22;40769;51.512;5.494;2023-08-31T10:18:06;26.00;99.90
13808;DHT22;40769;51.512;5.494;2023-08-31T10:20:32;26.00;99.90
13808;DHT22;40769;51.512;5.494;2023-08-31T10:25:25;26.10;99.90
13808;DHT22;40769;51.512;5.494;2023-08-31T10:28:22;26.20;99.90
13808;DHT22;40769;51.512;5.494;2023-08-31T10:33:43;26.10;99.90
13808;DHT22;40769;51.512;5.494;2023-08-31T10:36:17;26.10;99.90
13808;DHT22;40769;51.512;5.494;2023-08-31T10:41:23;26.00;99.90
13808;DHT22;40769;51.512;5.494;2023-08-31T10:43:55;26.10;99.90
13808;DHT22;40769;51.512;5.494;2023-08-31T10:46:28;26.20;99.90
13808;DHT22;40769;51.512;5.494;2023-08-31T10:51:33;26.50;99.90
13808;DHT22;40769;51.512;5.494;2023-08-31T10:54:09;26.60;99.90
13808;DHT22;40769;51.512;5.494;2023-08-31T10:59:24;26.90;99.90
13808;DHT22;40769;51.512;5.494;2023-08-31T11:01:54;27.00;99.90
13808;DHT22;40769;51.512;5.494;2023-08-31T11:04:25;27.20;99.90
13808;DHT22;40769;51.512;5.494;2023-08-31T11:07:15;27.30;99.90
13808;DHT22;40769;51.512;5.494;2023-08-31T11:09:41;27.40;99.90
13808;DHT22;40769;51.512;5.494;2023-08-31T11:12:08;27.40;99.90
13808;DHT22;40769;51.512;5.494;2023-08-31T11:14:34;27.60;99.90
13808;DHT22;40769;51.512;5.494;2023-08-31T11:17:00;27.80;99.90
13808;DHT22;40769;51.512;5.494;2023-08-31T11:19:27;27.90;99.90
13808;DHT22;40769;51.512;5.494;2023-08-31T11:21:54;28.00;99.90
13808;DHT22;40769;51.512;5.494;2023-08-31T11:24:20;28.00;99.90
13808;DHT22;40769;51.512;5.494;2023-08-31T11:26:55;27.90;99.90
13808;DHT22;40769;51.512;5.494;2023-08-31T11:29:24;27.70;99.90
13808;DHT22;40769;51.512;5.494;2023-08-31T11:31:50;27.50;99.90
13808;DHT22;40769;51.512;5.494;2023-08-31T11:34:17;27.30;99.90
13808;DHT22;40769;51.512;5.494;2023-08-31T11:36:44;27.00;99.90
13808;DHT22;40769;51.512;5.494;2023-08-31T11:39:10;26.80;99.90
13808;DHT22;40769;51.512;5.494;2023-08-31T11:41:36;26.60;99.90
13808;DHT22;40769;51.512;5.494;2023-08-31T11:44:07;26.50;99.90
13808;DHT22;40769;51.512;5.494;2023-08-31T11:46:34;26.40;99.90
13808;DHT22;40769;51.512;5.494;2023-08-31T11:49:00;26.40;99.90
13808;DHT22;40769;51.512;5.494;2023-08-31T11:51:27;26.50;99.90
13808;DHT22;40769;51.512;5.494;2023-08-31T11:53:56;26.70;99.90
13808;DHT22;40769;51.512;5.494;2023-08-31T11:56:23;26.80;99.90
13808;DHT22;40769;51.512;5.494;2023-08-31T11:58:51;26.90;99.90
13808;DHT22;40769;51.512;5.494;2023-08-31T12:01:20;26.90;99.90
13808;DHT22;40769;51.512;5.494;2023-08-31T12:03:47;26.90;99.90
13808;DHT22;40769;51.512;5.494;2023-08-31T12:06:18;26.80;99.90
13808;DHT22;40769;51.512;5.494;2023-08-31T12:08:44;26.60;99.90
13808;DHT22;40769;51.512;5.494;2023-08-31T12:11:10;26.50;99.90
13808;DHT22;40769;51.512;5.494;2023-08-31T12:13:35;26.40;99.90
13808;DHT22;40769;51.512;5.494;2023-08-31T12:16:01;26.30;99.90
13808;DHT22;40769;51.512;5.494;2023-08-31T12:18:30;26.10;99.90
13808;DHT22;40769;51.512;5.494;2023-08-31T12:20:59;25.90;99.90
13808;DHT22;40769;51.512;5.494;2023-08-31T12:23:26;25.60;99.90
13808;DHT22;40769;51.512;5.494;2023-08-31T12:25:53;25.20;99.90
13808;DHT22;40769;51.512;5.494;2023-08-31T12:28:20;24.80;99.90
13808;DHT22;40769;51.512;5.494;2023-08-31T12:30:50;24.20;99.90
13808;DHT22;40769;51.512;5.494;2023-08-31T12:33:17;23.60;99.90
13808;DHT22;40769;51.512;5.494;2023-08-31T12:35:43;23.00;99.90
13808;DHT22;40769;51.512;5.494;2023-08-31T12:38:09;22.50;99.90
13808;DHT22;40769;51.512;5.494;2023-08-31T12:40:35;22.00;99.90
13808;DHT22;40769;51.512;5.494;2023-08-31T12:43:00;21.40;99.90
13808;DHT22;40769;51.512;5.494;2023-08-31T12:45:26;20.90;99.90
13808;DHT22;40769;51.512;5.494;2023-08-31T12:47:52;20.40;99.90
13808;DHT22;40769;51.512;5.494;2023-08-31T12:50:17;19.90;99.90
13808;DHT22;40769;51.512;5.494;2023-08-31T12:52:43;19.50;99.90
13808;DHT22;40769;51.512;5.494;2023-08-31T12:55:15;19.20;99.90
13808;DHT22;40769;51.512;5.494;2023-08-31T12:57:42;18.90;99.90
13808;DHT22;40769;51.512;5.494;2023-08-31T13:00:08;18.70;99.90
13808;DHT22;40769;51.512;5.494;2023-08-31T13:02:38;18.60;99.90
13808;DHT22;40769;51.512;5.494;2023-08-31T13:05:04;18.40;99.90
13808;DHT22;40769;51.512;5.494;2023-08-31T13:07:31;18.30;99.90
13808;DHT22;40769;51.512;5.494;2023-08-31T13:09:59;18.30;99.90
13808;DHT22;40769;51.512;5.494;2023-08-31T13:12:25;18.10;99.90
13808;DHT22;40769;51.512;5.494;2023-08-31T13:14:51;18.00;99.90
13808;DHT22;40769;51.512;5.494;2023-08-31T13:17:16;17.90;99.90
13808;DHT22;40769;51.512;5.494;2023-08-31T13:19:42;17.80;99.90
13808;DHT22;40769;51.512;5.494;2023-08-31T13:22:08;17.70;99.90
13808;DHT22;40769;51.512;5.494;2023-08-31T13:24:33;17.60;99.90
13808;DHT22;40769;51.512;5.494;2023-08-31T13:27:02;17.50;99.90
13808;DHT22;40769;51.512;5.494;2023-08-31T13:29:28;17.40;99.90
13808;DHT22;40769;51.512;5.494;2023-08-31T13:31:53;17.30;99.90
13808;DHT22;40769;51.512;5.494;2023-08-31T13:34:20;17.30;99.90
13808;DHT22;40769;51.512;5.494;2023-08-31T13:36:45;17.30;99.90
13808;DHT22;40769;51.512;5.494;2023-08-31T13:39:11;17.30;99.90
13808;DHT22;40769;51.512;5.494;2023-08-31T13:41:37;17.30;99.90
13808;DHT22;40769;51.512;5.494;2023-08-31T13:44:03;17.30;99.90
13808;DHT22;40769;51.512;5.494;2023-08-31T13:46:29;17.30;99.90
13808;DHT22;40769;51.512;5.494;2023-08-31T13:48:56;17.40;99.90
13808;DHT22;40769;51.512;5.494;2023-08-31T13:51:22;17.40;99.90
13808;DHT22;40769;51.512;5.494;2023-08-31T13:53:51;17.50;99.90
13808;DHT22;40769;51.512;5.494;2023-08-31T13:56:16;17.60;99.90
13808;DHT22;40769;51.512;5.494;2023-08-31T13:58:42;17.70;99.90
13808;DHT22;40769;51.512;5.494;2023-08-31T14:01:08;17.90;99.90
13808;DHT22;40769;51.512;5.494;2023-08-31T14:03:33;18.10;99.90
13808;DHT22;40769;51.512;5.494;2023-08-31T14:05:59;18.20;99.90
13808;DHT22;40769;51.512;5.494;2023-08-31T14:08:25;18.40;99.90
13808;DHT22;40769;51.512;5.494;2023-08-31T14:10:53;18.60;99.90
13808;DHT22;40769;51.512;5.494;2023-08-31T14:13:19;18.70;99.90
13808;DHT22;40769;51.512;5.494;2023-08-31T14:15:45;18.80;99.90
13808;DHT22;40769;51.512;5.494;2023-08-31T14:18:12;18.90;99.90
13808;DHT22;40769;51.512;5.494;2023-08-31T14:20:39;18.90;99.90
13808;DHT22;40769;51.512;5.494;2023-08-31T14:23:05;19.10;99.90
13808;DHT22;40769;51.512;5.494;2023-08-31T14:25:35;19.20;99.90
13808;DHT22;40769;51.512;5.494;2023-08-31T14:28:01;19.30;99.90
13808;DHT22;40769;51.512;5.494;2023-08-31T14:30:28;19.40;99.90
13808;DHT22;40769;51.512;5.494;2023-08-31T14:32:54;19.50;99.90
13808;DHT22;40769;51.512;5.494;2023-08-31T14:35:19;19.60;99.90
13808;DHT22;40769;51.512;5.494;2023-08-31T14:37:46;19.70;99.90
13808;DHT22;40769;51.512;5.494;2023-08-31T14:40:12;19.70;99.90
13808;DHT22;40769;51.512;5.494;2023-08-31T14:42:37;19.70;99.90
13808;DHT22;40769;51.512;5.494;2023-08-31T14:45:03;19.80;99.90
13808;DHT22;40769;51.512;5.494;2023-08-31T14:47:29;19.80;99.90
13808;DHT22;40769;51.512;5.494;2023-08-31T14:49:59;19.90;99.90
13808;DHT22;40769;51.512;5.494;2023-08-31T14:52:24;19.90;99.90
13808;DHT22;40769;51.512;5.494;2023-08-31T14:54:50;20.10;99.90
13808;DHT22;40769;51.512;5.494;2023-08-31T14:57:16;20.20;99.90
13808;DHT22;40769;51.512;5.494;2023-08-31T14:59:41;20.40;99.90
13808;DHT22;40769;51.512;5.494;2023-08-31T15:02:07;20.60;99.90
13808;DHT22;40769;51.512;5.494;2023-08-31T15:04:33;20.80;99.90
13808;DHT22;40769;51.512;5.494;2023-08-31T15:06:59;20.90;99.90
13808;DHT22;40769;51.512;5.494;2023-08-31T15:09:26;21.00;99.90
13808;DHT22;40769;51.512;5.494;2023-08-31T15:11:52;21.10;99.90
13808;DHT22;40769;51.512;5.494;2023-08-31T15:14:17;21.20;99.90
13808;DHT22;40769;51.512;5.494;2023-08-31T15:16:43;21.20;99.90
13808;DHT22;40769;51.512;5.494;2023-08-31T15:19:09;21.20;99.90
13808;DHT22;40769;51.512;5.494;2023-08-31T15:21:35;21.20;99.90
13808;DHT22;40769;51.512;5.494;2023-08-31T15:24:01;21.10;99.90
13808;DHT22;40769;51.512;5.494;2023-08-31T15:26:28;21.10;99.90
13808;DHT22;40769;51.512;5.494;2023-08-31T15:28:53;21.00;99.90
13808;DHT22;40769;51.512;5.494;2023-08-31T15:31:19;21.00;99.90
13808;DHT22;40769;51.512;5.494;2023-08-31T15:33:45;20.90;99.90
13808;DHT22;40769;51.512;5.494;2023-08-31T15:36:10;20.80;99.90
13808;DHT22;40769;51.512;5.494;2023-08-31T15:38:37;20.70;99.90
13808;DHT22;40769;51.512;5.494;2023-08-31T15:41:05;20.50;99.90
13808;DHT22;40769;51.512;5.494;2023-08-31T15:43:33;20.40;99.90
13808;DHT22;40769;51.512;5.494;2023-08-31T15:46:00;20.30;99.90
13808;DHT22;40769;51.512;5.494;2023-08-31T15:48:26;20.20;99.90
13808;DHT22;40769;51.512;5.494;2023-08-31T15:50:56;20.20;99.90